• Join FlightAware (Why Join?)
  • Login
  • US Flag 
06:26PM EST


 

Airport Tracker/Info


-or-


 

Live Flight TrackerFlight Track Log ✈ SWG39 ✈ 02-Apr-2014 ✈ KPIE - CYHZ

Flight Track Log - Related Links

Times and Time Zones

All times are in EDT time to prevent confusion due to time zone crossing. See the SWG39 flight status page for this flight to view local times or setup timezone preferences in your user account.

Time Position Orientation Groundspeed Altitude Reporting Facility
EDT Latitude Longitude Course Direction KTS MPH feet Rate Location/Type
12:18PM 27.8667 -82.6833 223° Southwest 177 204 1,600  Level Tampa TRACON
12:20PM 27.7994 -82.7542 223° Southwest 211 243 4,200 1,920 Climbing Jacksonville Center
12:21PM 27.8725 -82.7753 346° North 143 165 7,400 3,060 Climbing Jacksonville Center
12:22PM 27.9536 -82.7586 10° North 195 224 10,400 2,040 Climbing Jacksonville Center
12:23PM 28.0433 -82.7375 12° North 247 284 11,500 1,560 Climbing Jacksonville Center
12:24PM 28.1497 -82.7325 North 326 375 13,600 2,100 Climbing Jacksonville Center
12:25PM 28.2561 -82.7300 North 362 417 15,800 2,100 Climbing Jacksonville Center
12:26PM 28.3731 -82.7275 North 394 453 17,800 1,920 Climbing Jacksonville Center
12:27PM 28.4919 -82.7247 North 414 476 19,700 1,800 Climbing Jacksonville Center
12:28PM 28.6153 -82.7222 North 425 489 21,500 1,860 Climbing Jacksonville Center
12:29PM 28.7467 -82.7219 360° North 425 489 23,500 1,800 Climbing Jacksonville Center
12:30PM 28.8739 -82.7194 North 438 504 25,100 1,500 Climbing Jacksonville Center
12:31PM 28.9992 -82.7144 North 443 510 26,500 1,440 Climbing Jacksonville Center
12:32PM 29.1308 -82.7142 360° North 449 517 28,000 1,380 Climbing Jacksonville Center
12:33PM 29.2558 -82.7092 North 449 517 29,300 1,260 Climbing Jacksonville Center
12:34PM 29.3875 -82.7092 360° North 454 522 30,600 900 Climbing Jacksonville Center
12:35PM 29.5128 -82.7089 360° North 454 522 31,100 540 Climbing Jacksonville Center
12:36PM 29.6422 -82.7039 North 460 529 31,700 600 Climbing Jacksonville Center
12:37PM 29.7675 -82.7011 North 460 529 32,300 540 Climbing Jacksonville Center
12:38PM 29.8906 -82.6986 North 455 524 32,800 300 Climbing Jacksonville Center
12:39PM 30.0136 -82.6983 360° North 449 517 33,000 60 Climbing Jacksonville Center
12:40PM 30.1369 -82.6933 North 443 510 33,000 240 Level Jacksonville Center
12:41PM 30.2642 -82.6906 North 443 510 33,500 600 Climbing Jacksonville Center
12:42PM 30.3875 -82.6878 North 438 504 34,200 540 Climbing Jacksonville Center
12:43PM 30.5106 -82.6756 North 438 504 34,600 360 Climbing Jacksonville Center
12:44PM 30.6106 -82.5811 39° Northeast 424 488 35,000 180 Climbing Jacksonville Center
12:45PM 30.7064 -82.4747 44° Northeast 439 505 35,000  Level Jacksonville Center
12:46PM 30.8019 -82.3725 43° Northeast 457 526 35,000  Level Jacksonville Center
12:47PM 30.8936 -82.2728 43° Northeast 457 526 35,000  Level Jacksonville Center
12:48PM 30.9911 -82.1703 42° Northeast 457 526 35,000  Level Jacksonville Center
12:49PM 31.0822 -82.0703 43° Northeast 457 526 35,000  Level Jacksonville Center
12:50PM 31.1778 -81.9650 43° Northeast 457 526 35,000  Level Jacksonville Center
12:51PM 31.2708 -81.8644 43° Northeast 444 511 35,000  Level Jacksonville Center
12:52PM 31.3661 -81.7611 43° Northeast 452 520 35,000  Level Jacksonville Center
12:53PM 31.4589 -81.6553 44° Northeast 453 521 35,000  Level Jacksonville Center
12:54PM 31.5458 -81.5617 43° Northeast 453 521 35,000  Level Jacksonville Center
12:55PM 31.6489 -81.4478 43° Northeast 463 533 35,000  Level Jacksonville Center
12:56PM 31.7439 -81.3633 37° Northeast 468 539 35,000  Level Jacksonville Center
12:57PM 31.8575 -81.2611 37° Northeast 462 532 35,000  Level Jacksonville Center
12:58PM 31.9628 -81.1686 37° Northeast 462 532 35,000  Level Jacksonville Center
12:59PM 32.0636 -81.0736 39° Northeast 455 524 35,000  Level Jacksonville Center
01:00PM 32.1689 -80.9806 37° Northeast 465 535 35,000  Level Jacksonville Center
01:01PM 32.2594 -80.9003 37° Northeast 460 529 35,000  Level Jacksonville Center
01:02PM 32.3706 -80.8019 37° Northeast 455 524 35,000  Level Jacksonville Center
01:03PM 32.4692 -80.7061 39° Northeast 455 524 35,000  Level Jacksonville Center
01:04PM 32.5719 -80.6122 38° Northeast 455 524 35,000  Level Jacksonville Center
01:05PM 32.6725 -80.5208 37° Northeast 455 524 35,000  Level Jacksonville Center
01:06PM 32.7731 -80.4294 37° Northeast 455 524 35,000  Level Jacksonville Center
01:07PM 32.8653 -80.3428 38° Northeast 460 529 35,000  Level Jacksonville Center
01:08PM 32.9819 -80.2381 37° Northeast 469 540 35,000  Level Jacksonville Center
01:09PM 33.0886 -80.1431 37° Northeast 469 540 35,000  Level Jacksonville Center
01:10PM 33.1847 -80.0606 36° Northeast 475 547 35,000  Level Jacksonville Center
01:11PM 33.2894 -79.9778 33° Northeast 468 539 35,000  Level Jacksonville Center
01:12PM 33.3958 -79.8922 34° Northeast 461 531 35,000  Level Jacksonville Center
01:13PM 33.5044 -79.8039 34° Northeast 461 531 35,000  Level Jacksonville Center
01:14PM 33.6128 -79.7153 34° Northeast 461 531 35,000  Level Jacksonville Center
01:15PM 33.7169 -79.6267 35° Northeast 461 531 35,000  Level Jacksonville Center
01:16PM 33.8253 -79.5403 34° Northeast 461 531 35,000  Level Jacksonville Center
01:17PM 33.9314 -79.4511 35° Northeast 461 531 35,000  Level Jacksonville Center
01:18PM 34.0353 -79.3642 35° Northeast 454 522 35,000  Level Jacksonville Center
01:19PM 34.1433 -79.2769 34° Northeast 459 528 35,000  Level Jacksonville Center
01:21PM 34.3542 -79.0986 35° Northeast 475 547 35,000  Level Washington Center
01:22PM 34.4631 -79.0125 33° Northeast 473 544 35,000  Level Washington Center
01:23PM 34.5700 -78.9161 37° Northeast 475 547 35,000  Level Washington Center
01:24PM 34.6747 -78.8269 35° Northeast 470 541 35,000  Level Washington Center
01:25PM 34.7794 -78.7378 35° Northeast 463 533 35,000  Level Washington Center
01:26PM 34.8861 -78.6481 35° Northeast 463 533 35,000  Level Washington Center
01:27PM 34.9906 -78.5558 36° Northeast 458 527 35,000  Level Washington Center
01:28PM 35.0969 -78.4683 34° Northeast 458 527 35,000  Level Washington Center
01:29PM 35.2056 -78.3756 35° Northeast 458 527 35,000  Level Washington Center
01:30PM 35.3100 -78.2800 37° Northeast 458 527 35,000  Level Washington Center
01:31PM 35.4083 -78.1711 42° Northeast 463 533 35,000  Level Washington Center
01:32PM 35.5044 -78.0669 41° Northeast 463 533 35,000  Level Washington Center
01:33PM 35.6047 -77.9603 41° Northeast 463 533 35,000  Level Washington Center
01:34PM 35.7006 -77.8556 42° Northeast 463 533 35,000  Level Washington Center
01:35PM 35.7986 -77.7483 42° Northeast 463 533 35,000  Level Washington Center
01:36PM 35.8964 -77.6408 42° Northeast 468 539 35,000  Level Washington Center
01:37PM 35.9922 -77.5353 42° Northeast 468 539 35,000  Level Washington Center
01:38PM 36.0919 -77.4272 41° Northeast 468 539 35,000  Level Washington Center
01:39PM 36.1833 -77.3214 43° Northeast 461 531 35,000  Level Washington Center
01:40PM 36.2742 -77.2253 40° Northeast 463 533 35,000  Level Washington Center
01:41PM 36.3842 -77.1219 37° Northeast 463 533 35,000  Level Washington Center
01:42PM 36.4728 -77.0333 39° Northeast 457 526 35,000  Level Washington Center
01:43PM 36.5742 -76.9394 37° Northeast 452 520 35,000  Level Washington Center
01:44PM 36.6733 -76.8400 39° Northeast 452 520 35,000  Level Washington Center
01:45PM 36.7744 -76.7433 37° Northeast 452 520 35,000  Level Washington Center
01:46PM 36.8753 -76.6408 39° Northeast 452 520 35,000  Level Washington Center
01:47PM 36.9764 -76.5433 38° Northeast 452 520 35,000  Level Washington Center
01:48PM 37.0750 -76.4458 38° Northeast 452 520 35,000  Level Washington Center
01:49PM 37.1758 -76.3453 38° Northeast 457 526 35,000  Level Washington Center
01:50PM 37.2872 -76.2314 39° Northeast 462 532 35,000  Level Washington Center
01:51PM 37.3814 -76.1458 36° Northeast 462 532 35,000  Level Washington Center
01:52PM 37.4819 -76.0472 38° Northeast 462 532 35,000  Level Washington Center
01:58PM 38.0797 -75.4264 39° Northeast 459 528 35,000  Level FlightAware ADS-B (KSBY)
02:01PM 38.4318 -75.0590 40° Northeast 463 533 35,000  Level FlightAware ADS-B (KWWD)
02:04PM 38.7271 -74.7468 40° Northeast 462 532 35,000  Level FlightAware ADS-B
02:07PM 39.0266 -74.4271 40° Northeast 463 533 35,000  Level FlightAware ADS-B (KWWD)
02:08PM 39.0811 -74.3687 40° Northeast 466 536 35,000  Level FlightAware ADS-B (KWWD)
02:09PM 39.1267 -74.3196 40° Northeast 469 540 35,000  Level FlightAware ADS-B (KPHL)
02:09PM 39.1978 -74.2428 40° Northeast 470 541 35,000  Level FlightAware ADS-B (KPHL)
02:10PM 39.2390 -74.1980 41° Northeast 465 535 35,000  Level FlightAware ADS-B (KWWD)
02:10PM 39.2819 -74.1512 40° Northeast 471 542 35,000  Level FlightAware ADS-B (KPHL)
02:11PM 39.3526 -74.0744 40° Northeast 466 536 35,000  Level FlightAware ADS-B (KPHL)
02:11PM 39.3892 -74.0344 40° Northeast 468 539 35,000  Level Boston Center
02:12PM 39.4869 -73.9283 40° Northeast 467 537 35,000  Level Boston Center
02:13PM 39.5842 -73.8217 40° Northeast 464 534 35,000  Level Boston Center
02:14PM 39.7011 -73.6933 40° Northeast 462 532 35,000  Level Boston Center
02:15PM 39.7983 -73.5856 40° Northeast 462 532 35,000  Level Boston Center
02:16PM 39.8953 -73.4775 41° Northeast 463 533 35,000  Level Boston Center
02:17PM 39.9989 -73.3628 40° Northeast 462 532 35,000  Level Boston Center
02:18PM 40.0950 -73.2531 41° Northeast 461 531 35,000  Level Boston Center
02:19PM 40.1633 -73.0994 60° Northeast 495 570 35,000  Level Boston Center
02:20PM 40.2200 -72.9475 64° Northeast 498 573 35,000  Level Boston Center
02:25PM 40.5158 -72.1658 64° Northeast 505 581 35,000  Level FlightAware ADS-B (SBBR / BSB)
02:26PM 40.5588 -72.0493 64° Northeast 506 582 35,000  Level FlightAware ADS-B (SBBR / BSB)
02:30PM 40.8289 -71.3103 65° Northeast 501 577 35,000  Level FlightAware ADS-B
02:31PM 40.8713 -71.1928 65° Northeast 501 577 35,000  Level FlightAware ADS-B (KASH)
02:32PM 40.9128 -71.0770 65° Northeast 500 575 35,000  Level FlightAware ADS-B (KASH)
02:32PM 40.9509 -70.9706 65° Northeast 501 577 35,000  Level FlightAware ADS-B
02:33PM 40.9855 -70.8733 65° Northeast 500 575 35,000  Level FlightAware ADS-B (KASH)
02:33PM 41.0211 -70.7732 65° Northeast 501 577 35,000  Level FlightAware ADS-B
02:34PM 41.0755 -70.6192 65° Northeast 500 575 35,000  Level FlightAware ADS-B (KASH)
02:35PM 41.1188 -70.4958 65° Northeast 497 572 35,000  Level FlightAware ADS-B (KASH)
02:36PM 41.1857 -70.3035 65° Northeast 491 565 35,000  Level FlightAware ADS-B (KOWD)
02:36PM 41.1941 -70.2795 65° Northeast 491 565 35,000  Level FlightAware ADS-B (KOWD)
02:37PM 41.2234 -70.1950 66° East 487 560 35,000  Level FlightAware ADS-B (KASH)
02:38PM 41.2629 -70.0820 64° Northeast 486 559 35,000  Level FlightAware ADS-B
02:38PM 41.3005 -70.0023 54° Northeast 464 534 35,000  Level FlightAware ADS-B (KASH)
02:39PM 41.3631 -69.9085 48° Northeast 460 529 35,000  Level FlightAware ADS-B
02:39PM 41.4121 -69.8371 48° Northeast 460 529 35,000  Level FlightAware ADS-B (KASH)
02:40PM 41.4646 -69.7604 48° Northeast 462 532 35,000  Level FlightAware ADS-B (KASH)
02:41PM 41.4364 -69.8014 48° Northeast 462 532 35,000  Level FlightAware ADS-B (KOWD)
02:44PM 41.7770 -69.2998 48° Northeast 470 541 35,000  Level FlightAware ADS-B
02:44PM 41.8095 -69.2513 48° Northeast 470 541 35,000  Level FlightAware ADS-B (CYQI)
02:45PM 41.8592 -69.1767 48° Northeast 470 541 35,000  Level FlightAware ADS-B
02:45PM 41.8850 -69.1380 49° Northeast 465 535 35,000  Level FlightAware ADS-B (KASH)
02:46PM 41.9344 -69.0637 48° Northeast 471 542 35,000  Level FlightAware ADS-B (CYQI)
02:46PM 41.9864 -68.9857 48° Northeast 472 543 35,000  Level FlightAware ADS-B (CYQI)
02:47PM 42.0314 -68.9180 48° Northeast 472 543 35,000  Level FlightAware ADS-B (CYQI)
02:47PM 42.0413 -68.9031 49° Northeast 467 537 35,000  Level FlightAware ADS-B (KASH)
02:47PM 42.0875 -68.8334 48° Northeast 473 544 35,000  Level FlightAware ADS-B (KBOS)
02:48PM 42.1295 -68.7697 49° Northeast 473 544 35,000  Level FlightAware ADS-B (CYQI)
02:48PM 42.1827 -68.6885 49° Northeast 473 544 35,000  Level FlightAware ADS-B (CYQI)
02:49PM 42.2237 -68.6263 48° Northeast 474 545 35,000  Level FlightAware ADS-B (CYQI)
02:49PM 42.2794 -68.5421 48° Northeast 475 547 35,000  Level FlightAware ADS-B (KBOS)
02:50PM 42.3268 -68.4699 49° Northeast 475 547 35,000  Level FlightAware ADS-B (KBOS)
02:51PM 42.3708 -68.4026 49° Northeast 477 549 35,000  Level FlightAware ADS-B (KBOS)
02:51PM 42.4119 -68.3397 49° Northeast 477 549 35,000  Level FlightAware ADS-B (KBOS)
02:52PM 42.4894 -68.2199 49° Northeast 480 552 35,000  Level FlightAware ADS-B (CYQI)
02:52PM 42.5169 -68.1775 50° Northeast 475 547 35,000  Level FlightAware ADS-B (KASH)
02:53PM 42.5567 -68.1159 49° Northeast 482 555 35,000  Level FlightAware ADS-B (CYQI)
02:53PM 42.6042 -68.0416 49° Northeast 482 555 35,000  Level FlightAware ADS-B (CYQI)
02:54PM 42.6497 -67.9707 49° Northeast 481 554 35,000  Level FlightAware ADS-B (CYQI)
02:54PM 42.7088 -67.8792 49° Northeast 481 554 35,000  Level FlightAware ADS-B (CYQI)
02:55PM 42.7519 -67.8119 49° Northeast 480 552 35,000  Level FlightAware ADS-B (CYQI)
02:56PM 42.8069 -67.7260 49° Northeast 479 551 35,000  Level FlightAware ADS-B (CYQI)
02:56PM 42.8538 -67.6524 49° Northeast 478 550 35,000  Level FlightAware ADS-B (CYQI)
02:57PM 42.8979 -67.5828 49° Northeast 477 549 35,000  Level FlightAware ADS-B (CYQI)
02:57PM 42.9509 -67.4989 49° Northeast 474 545 35,000  Level FlightAware ADS-B (CYQI)
02:58PM 42.9963 -67.4271 49° Northeast 472 543 35,000  Level FlightAware ADS-B (CYQI)
02:58PM 43.0532 -67.3374 49° Northeast 469 540 35,000 -180 Level FlightAware ADS-B (CYQI)
02:59PM 43.0960 -67.2689 50° Northeast 456 525 34,800 -1,800 Descending FlightAware ADS-B (CYQI)
02:59PM 43.1352 -67.2057 50° Northeast 465 535 33,200 -3,120 Descending FlightAware ADS-B (CYQI)
03:00PM 43.1799 -67.1350 49° Northeast 483 556 31,700 -1,620 Descending FlightAware ADS-B (CYQI)
03:01PM 43.2377 -67.0427 50° Northeast 491 565 31,400 -540 Descending FlightAware ADS-B (CYQI)
03:01PM 43.2819 -66.9711 50° Northeast 490 564 31,100 -420 Descending FlightAware ADS-B (CYQI)
03:02PM 43.3266 -66.8986 50° Northeast 488 562 31,000 -120 Descending FlightAware ADS-B (CYQI)
03:02PM 43.3838 -66.8058 50° Northeast 485 558 31,000  Level FlightAware ADS-B (CYQI)
03:03PM 43.4275 -66.7350 50° Northeast 483 556 31,000  Level FlightAware ADS-B (CYQI)
03:04PM 43.4990 -66.6188 50° Northeast 479 551 31,000  Level FlightAware ADS-B (CYQI)
03:04PM 43.5432 -66.5469 50° Northeast 476 548 31,000  Level FlightAware ADS-B (CYQI)
03:05PM 43.5958 -66.4612 50° Northeast 472 543 31,000  Level FlightAware ADS-B (CYQI)
03:05PM 43.6414 -66.3860 50° Northeast 466 536 31,000 -720 Level FlightAware ADS-B (CYQI)
03:06PM 43.7065 -66.2782 50° Northeast 459 528 30,100 -1,800 Descending FlightAware ADS-B (CYQI)
03:07PM 43.7500 -66.2064 50° Northeast 460 529 28,600 -2,400 Descending FlightAware ADS-B (CYQI)
03:07PM 43.7970 -66.1294 50° Northeast 455 524 27,400 -1,800 Descending FlightAware ADS-B (CYQI)
03:08PM 43.8507 -66.0235 60° Northeast 459 528 26,300 -1,500 Descending FlightAware ADS-B (CYQI)
03:08PM 43.8898 -65.9313 60° Northeast 460 529 25,500 -1,320 Descending FlightAware ADS-B (CYQI)
03:09PM 43.9231 -65.8471 63° Northeast 437 503 24,800 -1,260 Descending FlightAware ADS-B (CYQI)
03:10PM 43.9577 -65.7543 63° Northeast 416 479 24,000 -1,140 Descending FlightAware ADS-B (CYQI)
03:10PM 43.9863 -65.6782 63° Northeast 410 472 23,500 -900 Descending FlightAware ADS-B (CYQI)
03:11PM 44.0121 -65.6088 63° Northeast 408 470 23,100 -1,140 Descending FlightAware ADS-B (CYQI)
03:11PM 44.0388 -65.5374 63° Northeast 408 470 22,400 -1,320 Descending FlightAware ADS-B (CYQI)
03:12PM 44.0714 -65.4498 63° Northeast 401 461 21,600 -1,140 Descending FlightAware ADS-B (CYQI)
03:12PM 44.0986 -65.3766 63° Northeast 392 451 21,100 -1,140 Descending FlightAware ADS-B (CYQI)
03:13PM 44.1240 -65.3079 63° Northeast 390 449 20,400 -1,140 Descending FlightAware ADS-B (CYQI)
03:14PM 44.1559 -65.2212 63° Northeast 385 443 19,800 -1,260 Descending FlightAware ADS-B (CYQI)
03:14PM 44.1862 -65.1388 63° Northeast 371 427 18,900 -1,320 Descending FlightAware ADS-B (CYQI)
03:15PM 44.2104 -65.0731 63° Northeast 360 414 18,300 -1,020 Descending FlightAware ADS-B (CYQI)
03:15PM 44.2402 -64.9917 63° Northeast 360 414 17,700 -1,080 Descending FlightAware ADS-B (CYQI)
03:16PM 44.2636 -64.9277 63° Northeast 359 413 17,100 -1,080 Descending FlightAware ADS-B (CYQI)
03:17PM 44.2918 -64.8501 63° Northeast 360 414 16,500 -960 Descending FlightAware ADS-B (CYQI)
03:17PM 44.3151 -64.7854 63° Northeast 356 410 16,000 -1,020 Descending FlightAware ADS-B (CYQI)
03:18PM 44.3354 -64.7294 63° Northeast 354 407 15,500 -1,020 Descending FlightAware ADS-B (CYQI)
03:18PM 44.3667 -64.6433 63° Northeast 348 400 14,800 -1,020 Descending FlightAware ADS-B (CYQI)
03:19PM 44.4029 -64.5423 64° Northeast 345 397 14,000 -1,140 Descending FlightAware ADS-B (CYQI)
03:20PM 44.4292 -64.4692 63° Northeast 337 388 13,200 -1,500 Descending FlightAware ADS-B (CYQI)
03:20PM 44.4538 -64.4003 64° Northeast 333 383 12,200 -1,560 Descending FlightAware ADS-B (CYQI)
03:21PM 44.4833 -64.2833 64° Northeast 330 380 10,600 -1,080 Descending Moncton Center
03:22PM 44.5167 -64.1667 68° East 300 345 10,000 -840 Descending Moncton Center
03:23PM 44.5500 -64.0667 65° Northeast 270 311 9,000 -1,200 Descending Moncton Center
03:24PM 44.5833 -63.9667 65° Northeast 260 299 7,700 -1,200 Descending Moncton Center
03:25PM 44.6167 -63.8833 61° Northeast 250 288 6,600 -1,140 Descending Moncton Center
03:26PM 44.6500 -63.8167 55° Northeast 240 276 5,500 -900 Descending Moncton Center
03:27PM 44.6667 -63.7167 77° East 220 253 4,800 -780 Descending Moncton Center
03:28PM 44.7000 -63.6667 47° Northeast 190 219 4,000 -900 Descending Moncton Center
03:29PM 44.7333 -63.6167 47° Northeast 180 207 3,000 -960 Descending Moncton Center
03:30PM 44.7833 -63.5667 35° Northeast 160 184 2,100 -840 Descending Moncton Center
03:31PM 44.8167 -63.5500 20° North 140 161 1,400 -780 Descending Moncton Center
03:32PM 44.8500 -63.5167 35° Northeast 130 150 600 -840 Descending Moncton Center